• Join FlightAware (Why Join?)
  • Login
  • US Flag 
09:03AM EST


 

Airport Tracker/Info


-or-


 

Live Flight TrackerFlight Track Log ✈ CFH21 ✈ 12-Jul-2013 ✈ YPDN / DRW - YPTN / KTR

Flight Track Log - Related Links

Times and Time Zones

All times are in EDT time to prevent confusion due to time zone crossing. See the CFH21 flight status page for this flight to view local times or setup timezone preferences in your user account.

Time Position Orientation Groundspeed Altitude Reporting Facility
EDT Latitude Longitude Course Direction KTS MPH feet Rate Location/Type
05:36AM -12.4278 130.9212 106° East 133 153 1,800  Level Aus ATC (RADAR)
05:37AM -12.4339 130.9426 106° East 129 148 2,900 1,800 Climbing Aus ATC (RADAR)
05:37AM -12.4523 130.9490 161° South 141 162 3,900 1,680 Climbing Aus ATC (RADAR)
05:38AM -12.4749 130.9427 195° South 143 165 4,900 1,560 Climbing Aus ATC (RADAR)
05:38AM -12.4994 130.9391 188° South 148 170 5,700 1,260 Climbing Aus ATC (RADAR)
05:39AM -12.5271 130.9372 184° South 163 188 6,400 1,260 Climbing Aus ATC (RADAR)
05:40AM -12.5638 130.9364 181° South 170 196 7,400 1,500 Climbing Aus ATC (RADAR)
05:41AM -12.6085 130.9341 183° South 151 174 9,100 1,500 Climbing Aus ATC (RADAR)
05:41AM -12.6356 130.9456 158° South 154 177 9,900 1,200 Climbing Aus ATC (RADAR)
05:42AM -12.6695 130.9720 143° Southeast 148 170 11,100 1,200 Climbing Aus ATC (RADAR)
05:43AM -12.6968 130.9911 146° Southeast 151 174 12,000 1,080 Climbing Aus ATC (RADAR)
05:44AM -12.7176 131.0058 145° Southeast 157 181 12,600 1,080 Climbing Aus ATC (RADAR)
05:44AM -12.7439 131.0238 146° Southeast 166 191 13,400 1,080 Climbing Aus ATC (RADAR)
05:45AM -12.7636 131.0374 146° Southeast 165 190 13,900 960 Climbing Aus ATC (RADAR)
05:45AM -12.7866 131.0531 146° Southeast 165 190 14,500 900 Climbing Aus ATC (RADAR)
05:46AM -12.8220 131.0775 146° Southeast 184 212 15,200 840 Climbing Aus ATC (RADAR)
05:47AM -12.8663 131.1083 146° Southeast 186 214 16,100 900 Climbing Aus ATC (RADAR)
05:48AM -12.8955 131.1286 146° Southeast 185 213 16,700 780 Climbing Aus ATC (RADAR)
05:48AM -12.9207 131.1464 145° Southeast 182 209 17,100 780 Climbing Aus ATC (RADAR)
05:49AM -12.9510 131.1740 138° Southeast 187 215 17,800 840 Climbing Aus ATC (RADAR)
05:50AM -12.9923 131.2095 140° Southeast 191 220 18,600 780 Climbing Aus ATC (RADAR)
05:51AM -13.0202 131.2331 140° Southeast 189 217 19,100 720 Climbing Aus ATC (RADAR)
05:51AM -13.0503 131.2591 140° Southeast 205 236 19,600 840 Climbing Aus ATC (RADAR)
05:52AM -13.0812 131.2865 139° Southeast 190 219 20,300 780 Climbing Aus ATC (RADAR)
05:53AM -13.1229 131.3207 141° Southeast 185 213 21,000 420 Climbing Aus ATC (RADAR)
05:54AM -13.1525 131.3463 140° Southeast 211 243 21,000  Level Aus ATC (RADAR)
05:54AM -13.1805 131.3707 140° Southeast 222 255 21,000  Level Aus ATC (RADAR)
05:55AM -13.2079 131.3958 138° Southeast 221 254 21,000  Level Aus ATC (RADAR)
05:56AM -13.2370 131.4207 140° Southeast 231 266 21,000  Level Aus ATC (RADAR)
05:56AM -13.2721 131.4495 141° Southeast 239 275 21,000  Level Aus ATC (RADAR)
05:57AM -13.3054 131.4794 139° Southeast 235 270 21,000  Level Aus ATC (RADAR)
05:58AM -13.3569 131.5243 140° Southeast 240 276 21,000  Level Aus ATC (RADAR)
05:59AM -13.3958 131.5576 140° Southeast 239 275 21,000  Level Aus ATC (RADAR)
05:59AM -13.4263 131.5837 140° Southeast 243 280 21,000  Level Aus ATC (RADAR)
06:00AM -13.4563 131.6098 140° Southeast 238 274 21,000  Level Aus ATC (RADAR)
06:00AM -13.4866 131.6366 139° Southeast 244 281 21,000  Level Aus ATC (RADAR)
06:01AM -13.5164 131.6625 140° Southeast 240 276 21,000  Level Aus ATC (RADAR)
06:02AM -13.5478 131.6880 142° Southeast 243 280 21,000  Level Aus ATC (RADAR)
06:02AM -13.5810 131.7108 146° Southeast 246 283 21,000  Level Aus ATC (RADAR)
06:03AM -13.6143 131.7341 146° Southeast 244 281 21,000  Level Aus ATC (RADAR)
06:03AM -13.6529 131.7595 147° Southeast 244 281 21,000  Level Aus ATC (RADAR)
06:04AM -13.7095 131.7996 145° Southeast 244 281 21,000 -480 Level Aus ATC (RADAR)
06:05AM -13.7527 131.8294 146° Southeast 246 283 20,200 -1,140 Descending Aus ATC (RADAR)
06:06AM -13.7915 131.8562 146° Southeast 283 326 19,500 -1,320 Descending Aus ATC (RADAR)
06:06AM -13.8352 131.8881 145° Southeast 287 330 18,600 -1,320 Descending Aus ATC (RADAR)
06:07AM -13.8756 131.9149 147° Southeast 295 339 17,900 -1,320 Descending Aus ATC (RADAR)
06:08AM -13.9134 131.9437 144° Southeast 291 335 17,100 -1,380 Descending Aus ATC (RADAR)
06:08AM -13.9577 131.9751 145° Southeast 290 334 16,200 -1,560 Descending Aus ATC (RADAR)
06:09AM -14.0222 132.0194 146° Southeast 273 314 14,500 -1,740 Descending Aus ATC (RADAR)
06:10AM -14.0686 132.0528 145° Southeast 270 311 13,200 -1,800 Descending Aus ATC (RADAR)
06:11AM -14.1032 132.0775 145° Southeast 259 298 12,200 -1,800 Descending Aus ATC (RADAR)
06:11AM -14.1359 132.1006 146° Southeast 246 283 11,100 -1,800 Descending Aus ATC (RADAR)
06:12AM -14.1789 132.1300 147° Southeast 244 281 9,800 -1,740 Descending Aus ATC (RADAR)
06:13AM -14.2116 132.1532 145° Southeast 246 283 8,800 -1,920 Descending Aus ATC (RADAR)
06:13AM -14.2503 132.1612 169° South 252 290 7,600 -2,100 Descending Aus ATC (RADAR)
06:14AM -14.2906 132.1674 172° South 253 291 -2,100 Descending Aus ATC (RADAR)
06:14AM -14.3210 132.1913 143° Southeast 234 269 5,200 3,840 Climbing Aus ATC (RADAR)
06:15AM -14.3450 132.2184 132° Southeast 220 253 4,500 -1,140 Descending Aus ATC (RADAR)
06:15AM -14.3657 132.2390 136° Southeast 208 239 4,000 -960 Descending Aus ATC (RADAR)
06:16AM -14.3882 132.2570 142° Southeast 177 204 3,500 -840 Descending Aus ATC (RADAR)
06:17AM -14.4098 132.2781 137° Southeast 141 162 2,900 -780 Descending Aus ATC (RADAR)
06:17AM -14.4264 132.2917 142° Southeast 130 150 2,500 -720 Descending Aus ATC (RADAR)
06:18AM -14.4426 132.3062 139° Southeast 132 152 2,100 -600 Descending Aus ATC (RADAR)
06:19AM -14.4627 132.3234 140° Southeast 124 143 1,700 -660 Descending Aus ATC (RADAR)
06:20AM -14.4862 132.3447 139° Southeast 115 132 1,000 -660 Descending Aus ATC (RADAR)
06:20AM -14.5024 132.3590 139° Southeast 114 131 700 -480 Descending Aus ATC (RADAR)
06:21AM -14.5139 132.3691 140° Southeast 95 109 400 -540 Descending Aus ATC (RADAR)